createdAt,value
2018-04-27T00:00:16.178Z,4.00
2018-04-27T00:01:16.208Z,4.00
2018-04-27T00:02:16.214Z,4.00
2018-04-27T00:03:16.224Z,4.00
2018-04-27T00:04:16.238Z,4.00
2018-04-27T00:05:16.254Z,4.00
2018-04-27T00:06:16.268Z,4.00
2018-04-27T00:07:16.283Z,4.00
2018-04-27T00:08:16.368Z,4.00
2018-04-27T00:09:16.313Z,4.00
2018-04-27T00:10:16.329Z,4.00
2018-04-27T00:11:16.347Z,4.00
2018-04-27T00:12:16.357Z,4.00
2018-04-27T00:13:16.377Z,4.00
2018-04-27T00:14:16.388Z,4.00
2018-04-27T00:15:16.403Z,4.00
2018-04-27T00:16:16.417Z,4.00
2018-04-27T00:17:16.435Z,4.00
2018-04-27T00:18:16.448Z,4.00
2018-04-27T00:19:16.460Z,4.00
2018-04-27T00:20:16.477Z,4.00
2018-04-27T00:21:16.548Z,4.00
2018-04-27T00:22:16.631Z,4.00
2018-04-27T00:23:16.524Z,4.00
2018-04-27T00:24:16.535Z,4.00
2018-04-27T00:25:16.555Z,4.00
2018-04-27T00:26:16.564Z,4.00
2018-04-27T00:27:16.579Z,4.00
2018-04-27T00:28:16.593Z,4.00
2018-04-27T00:29:16.622Z,4.00
2018-04-27T00:30:16.623Z,4.00
2018-04-27T00:31:16.637Z,4.00
2018-04-27T00:32:16.656Z,4.00
2018-04-27T00:33:16.668Z,4.00
2018-04-27T00:34:16.777Z,4.00
2018-04-27T00:35:16.695Z,4.00
2018-04-27T00:36:16.710Z,4.00
2018-04-27T00:37:16.726Z,4.00
2018-04-27T00:38:16.742Z,4.00
2018-04-27T00:39:16.758Z,4.00
2018-04-27T00:40:16.843Z,4.00
2018-04-27T00:41:16.786Z,4.00
2018-04-27T00:42:16.803Z,4.00
2018-04-27T00:43:16.822Z,4.00
2018-04-27T00:44:16.831Z,4.00
2018-04-27T00:45:16.845Z,4.00
2018-04-27T00:46:16.859Z,4.00
2018-04-27T00:47:16.876Z,4.00
2018-04-27T00:48:16.889Z,4.00
2018-04-27T00:49:16.903Z,4.00
2018-04-27T00:50:16.921Z,4.00
2018-04-27T00:51:16.971Z,4.00
2018-04-27T00:52:16.953Z,4.00
2018-04-27T00:53:16.961Z,4.00
2018-04-27T00:54:16.976Z,4.00
2018-04-27T00:55:16.999Z,4.00
2018-04-27T00:56:17.055Z,4.00
2018-04-27T00:57:17.022Z,4.00
2018-04-27T00:58:17.041Z,4.00
2018-04-27T00:59:17.050Z,4.00
2018-04-27T01:00:17.067Z,4.00
2018-04-27T01:02:17.184Z,4.00
2018-04-27T01:03:17.109Z,4.00
2018-04-27T01:04:17.124Z,4.00
2018-04-27T01:05:17.139Z,4.00
2018-04-27T01:06:17.154Z,4.00
2018-04-27T01:07:17.169Z,4.00
2018-04-27T01:08:17.183Z,4.00
2018-04-27T01:09:17.243Z,4.00
2018-04-27T01:10:17.214Z,4.00
2018-04-27T01:11:17.227Z,4.00
2018-04-27T01:12:17.242Z,4.00
2018-04-27T01:13:17.263Z,4.00
2018-04-27T01:14:17.270Z,4.00
2018-04-27T01:15:17.290Z,4.00
2018-04-27T01:16:17.302Z,4.00
2018-04-27T01:17:17.315Z,4.00
2018-04-27T01:18:17.328Z,4.00
2018-04-27T01:19:17.344Z,4.00
2018-04-27T01:20:17.357Z,4.00
2018-04-27T01:21:17.373Z,4.00
2018-04-27T01:22:17.391Z,4.00
2018-04-27T01:23:17.404Z,4.00
2018-04-27T01:24:17.419Z,4.00
2018-04-27T01:25:17.431Z,4.00
2018-04-27T01:26:17.449Z,4.00
2018-04-27T01:27:17.512Z,4.00
2018-04-27T01:28:17.477Z,4.00
2018-04-27T01:29:17.496Z,4.00
2018-04-27T01:30:17.507Z,4.00
2018-04-27T01:31:17.519Z,4.00
2018-04-27T01:32:17.549Z,4.00
2018-04-27T01:33:17.549Z,4.00
2018-04-27T01:34:17.668Z,4.00
2018-04-27T01:35:17.593Z,4.00
2018-04-27T01:36:17.589Z,4.00
2018-04-27T01:37:17.601Z,4.00
2018-04-27T01:38:17.627Z,4.00
2018-04-27T01:39:17.631Z,4.00
2018-04-27T01:40:17.651Z,4.00
2018-04-27T01:41:17.667Z,4.00
2018-04-27T01:42:17.677Z,4.00
2018-04-27T01:43:17.691Z,4.00
2018-04-27T01:44:17.708Z,4.00
2018-04-27T01:45:17.719Z,4.00
2018-04-27T01:46:17.744Z,4.00
2018-04-27T01:47:17.748Z,4.00
2018-04-27T01:48:17.765Z,4.00
2018-04-27T01:49:17.778Z,4.00
2018-04-27T01:50:17.793Z,4.00
2018-04-27T01:51:17.806Z,4.00
2018-04-27T01:52:17.824Z,4.00
2018-04-27T01:53:17.838Z,4.00
2018-04-27T01:54:17.851Z,4.00
2018-04-27T01:55:17.865Z,4.00
2018-04-27T01:56:18.082Z,4.00
2018-04-27T01:57:17.899Z,4.00
2018-04-27T01:58:17.919Z,4.00
2018-04-27T01:59:17.925Z,4.00
2018-04-27T02:00:17.941Z,4.00
2018-04-27T02:01:17.957Z,4.00
2018-04-27T02:02:17.967Z,4.00
2018-04-27T02:03:17.982Z,4.00
2018-04-27T02:04:17.995Z,4.00
2018-04-27T02:05:18.011Z,4.00
2018-04-27T02:06:18.023Z,4.00
2018-04-27T02:07:18.039Z,4.00
2018-04-27T02:08:18.129Z,4.00
2018-04-27T02:09:18.069Z,4.00
2018-04-27T02:10:18.080Z,4.00
2018-04-27T02:11:18.094Z,4.00
2018-04-27T02:12:18.104Z,4.00
2018-04-27T02:13:18.117Z,4.00
2018-04-27T02:14:18.130Z,4.00
2018-04-27T02:15:18.159Z,4.00
2018-04-27T02:16:18.163Z,4.00
2018-04-27T02:17:18.172Z,4.00
2018-04-27T02:18:18.193Z,4.00
2018-04-27T02:19:18.203Z,4.00
2018-04-27T02:20:18.215Z,4.00
2018-04-27T02:21:18.242Z,4.00
2018-04-27T02:22:18.249Z,4.00
2018-04-27T02:23:18.257Z,4.00
2018-04-27T02:24:18.275Z,4.00
2018-04-27T02:25:18.287Z,4.00
2018-04-27T02:26:18.301Z,4.00
2018-04-27T02:27:18.362Z,4.00
2018-04-27T02:28:18.670Z,4.00
2018-04-27T02:29:18.343Z,4.00
2018-04-27T02:30:18.358Z,4.00
2018-04-27T02:31:18.393Z,4.00
2018-04-27T02:32:18.642Z,4.00
2018-04-27T02:33:18.402Z,4.00
2018-04-27T02:34:18.416Z,4.00
2018-04-27T02:35:18.433Z,4.00
2018-04-27T02:36:18.446Z,4.00
2018-04-27T02:37:18.458Z,4.00
2018-04-27T02:38:18.473Z,4.00
2018-04-27T02:39:18.485Z,4.00
2018-04-27T02:40:18.500Z,4.00
2018-04-27T02:41:18.519Z,4.00
2018-04-27T02:42:18.529Z,4.00
2018-04-27T02:43:18.543Z,4.00
2018-04-27T02:44:18.557Z,4.00
2018-04-27T02:45:18.575Z,4.00
2018-04-27T02:46:18.589Z,4.00
2018-04-27T02:47:18.601Z,4.00
2018-04-27T02:48:18.619Z,4.00
2018-04-27T02:49:18.631Z,4.00
2018-04-27T02:50:18.643Z,4.00
2018-04-27T02:51:18.656Z,4.00
2018-04-27T02:52:18.672Z,4.00
2018-04-27T02:53:18.686Z,4.00
2018-04-27T02:54:18.701Z,4.00
2018-04-27T02:55:18.719Z,4.00
2018-04-27T02:56:18.728Z,4.00
2018-04-27T02:57:18.744Z,4.00
2018-04-27T02:58:18.811Z,4.00
2018-04-27T02:59:18.792Z,4.00
2018-04-27T03:00:18.790Z,4.00
2018-04-27T03:01:18.865Z,4.00
2018-04-27T03:03:18.830Z,4.00
2018-04-27T03:04:18.845Z,4.00
2018-04-27T03:05:18.859Z,4.00
2018-04-27T03:06:18.872Z,4.00
2018-04-27T03:07:18.887Z,4.00
2018-04-27T03:08:18.900Z,4.00
2018-04-27T03:09:18.913Z,4.00
2018-04-27T03:10:18.928Z,4.00
2018-04-27T03:11:18.942Z,4.00
2018-04-27T03:12:18.965Z,4.00
2018-04-27T03:13:18.969Z,4.00
2018-04-27T03:14:18.984Z,4.00
2018-04-27T03:15:18.998Z,4.00
2018-04-27T03:16:19.064Z,4.00
2018-04-27T03:17:19.153Z,4.00
2018-04-27T03:18:19.047Z,4.00
2018-04-27T03:19:19.056Z,4.00
2018-04-27T03:20:19.069Z,4.00
2018-04-27T03:21:19.091Z,4.00
2018-04-27T03:22:19.099Z,4.00
2018-04-27T03:23:19.114Z,4.00
2018-04-27T03:24:19.127Z,4.00
2018-04-27T03:25:19.142Z,4.00
2018-04-27T03:26:19.157Z,4.00
2018-04-27T03:27:19.175Z,4.00
2018-04-27T03:28:19.264Z,4.00
2018-04-27T03:29:19.256Z,4.00
2018-04-27T03:30:19.270Z,4.00
2018-04-27T03:31:19.295Z,4.00
2018-04-27T03:32:19.264Z,4.00
2018-04-27T03:33:19.267Z,4.00
2018-04-27T03:34:19.321Z,4.00
2018-04-27T03:35:19.285Z,4.00
2018-04-27T03:36:19.304Z,4.00
2018-04-27T03:37:19.322Z,4.00
2018-04-27T03:38:19.353Z,0.00
2018-04-27T03:39:19.344Z,0.00
2018-04-27T03:40:19.363Z,4.00
2018-04-27T03:41:19.375Z,4.00
2018-04-27T03:42:19.384Z,4.00
2018-04-27T03:43:19.398Z,4.00
2018-04-27T03:44:19.413Z,8.00
2018-04-27T03:45:19.490Z,4.00
2018-04-27T03:46:19.441Z,4.00
2018-04-27T03:47:19.452Z,8.00
2018-04-27T03:48:19.470Z,4.00
2018-04-27T03:49:19.483Z,8.00
2018-04-27T03:50:19.495Z,8.00
2018-04-27T03:51:19.574Z,8.00
2018-04-27T03:52:19.527Z,8.00
2018-04-27T03:53:19.544Z,8.00
2018-04-27T03:54:19.558Z,12.00
2018-04-27T03:55:19.761Z,12.00
2018-04-27T03:56:19.582Z,12.00
2018-04-27T03:57:19.596Z,16.00
2018-04-27T03:58:19.611Z,16.00
2018-04-27T03:59:19.624Z,16.00
2018-04-27T04:00:19.656Z,20.00
2018-04-27T04:01:19.658Z,24.00
2018-04-27T04:02:19.677Z,24.00
2018-04-27T04:03:19.681Z,28.00
2018-04-27T04:04:19.696Z,32.00
2018-04-27T04:05:19.800Z,36.00
2018-04-27T04:06:19.723Z,40.00
2018-04-27T04:07:19.738Z,44.00
2018-04-27T04:08:19.754Z,48.00
2018-04-27T04:09:19.793Z,56.00
2018-04-27T04:10:19.780Z,56.00
2018-04-27T04:11:19.793Z,64.00
2018-04-27T04:12:19.819Z,68.00
2018-04-27T04:13:19.821Z,72.00
2018-04-27T04:14:19.839Z,76.00
2018-04-27T04:15:19.849Z,80.00
2018-04-27T04:16:19.863Z,88.00
2018-04-27T04:17:19.883Z,88.00
2018-04-27T04:18:19.926Z,96.00
2018-04-27T04:19:19.909Z,100.00
2018-04-27T04:20:19.928Z,108.00
2018-04-27T04:21:19.979Z,112.00
2018-04-27T04:22:20.027Z,120.00
2018-04-27T04:23:19.972Z,128.00
2018-04-27T04:24:19.979Z,132.00
2018-04-27T04:25:19.996Z,140.00
2018-04-27T04:26:20.006Z,148.00
2018-04-27T04:27:20.023Z,152.00
2018-04-27T04:28:20.033Z,160.00
2018-04-27T04:29:20.051Z,168.00
2018-04-27T04:30:20.060Z,176.00
2018-04-27T04:31:20.078Z,184.00
2018-04-27T04:32:20.172Z,192.00
2018-04-27T04:33:20.115Z,200.00
2018-04-27T04:34:20.118Z,212.00
2018-04-27T04:35:20.302Z,224.00
2018-04-27T04:36:20.205Z,232.00
2018-04-27T04:37:20.160Z,240.00
2018-04-27T04:38:20.189Z,252.00
2018-04-27T04:39:20.188Z,260.00
2018-04-27T04:40:20.211Z,272.00
2018-04-27T04:41:20.216Z,280.00
2018-04-27T04:42:20.235Z,292.00
2018-04-27T04:43:20.249Z,304.00
2018-04-27T04:44:20.265Z,316.00
2018-04-27T04:45:20.270Z,332.00
2018-04-27T04:46:20.310Z,348.00
2018-04-27T04:47:20.324Z,360.00
2018-04-27T04:48:20.315Z,376.00
2018-04-27T04:49:20.328Z,396.00
2018-04-27T04:50:20.367Z,412.00
2018-04-27T04:51:20.357Z,424.00
2018-04-27T04:53:20.406Z,464.00
2018-04-27T04:54:20.404Z,476.00
2018-04-27T04:55:20.429Z,492.00
2018-04-27T04:56:20.429Z,504.00
2018-04-27T04:57:20.457Z,532.00
2018-04-27T04:58:20.449Z,580.00
2018-04-27T04:59:20.466Z,640.00
2018-04-27T05:00:20.482Z,672.00
2018-04-27T05:01:20.494Z,704.00
2018-04-27T05:02:20.524Z,720.00
2018-04-27T05:03:20.518Z,728.00
2018-04-27T05:04:20.537Z,736.00
2018-04-27T05:05:20.551Z,772.00
2018-04-27T05:06:20.571Z,776.00
2018-04-27T05:07:20.580Z,788.00
2018-04-27T05:09:20.608Z,864.00
2018-04-27T05:10:20.621Z,868.00
2018-04-27T05:11:20.635Z,884.00
2018-04-27T05:12:20.646Z,908.00
2018-04-27T05:13:20.660Z,924.00
2018-04-27T05:14:20.798Z,932.00
2018-04-27T05:15:20.699Z,948.00
2018-04-27T05:16:20.704Z,964.00
2018-04-27T05:17:20.721Z,980.00
2018-04-27T05:18:20.733Z,988.00
2018-04-27T05:19:20.775Z,912.00
2018-04-27T05:20:21.092Z,924.00
2018-04-27T05:21:20.792Z,884.00
2018-04-27T05:22:20.794Z,1016.00
2018-04-27T05:23:20.811Z,960.00
2018-04-27T05:24:20.840Z,1036.00
2018-04-27T05:25:20.829Z,1068.00
2018-04-27T05:26:20.856Z,1152.00
2018-04-27T05:27:20.860Z,1168.00
2018-04-27T05:28:20.873Z,1184.00
2018-04-27T05:29:20.912Z,1192.00
2018-04-27T05:30:20.941Z,1192.00
2018-04-27T05:31:20.932Z,1176.00
2018-04-27T05:32:20.957Z,964.00
2018-04-27T05:33:20.955Z,1264.00
2018-04-27T05:34:20.961Z,1364.00
2018-04-27T05:35:20.974Z,1156.00
2018-04-27T05:36:21.094Z,1324.00
2018-04-27T05:37:20.997Z,1412.00
2018-04-27T05:38:21.010Z,1520.00
2018-04-27T05:39:21.032Z,2096.00
2018-04-27T05:40:21.174Z,2656.00
2018-04-27T05:41:21.061Z,4324.00
2018-04-27T05:42:21.070Z,4992.00
2018-04-27T05:43:21.085Z,3536.00
2018-04-27T05:44:21.109Z,1900.00
2018-04-27T05:45:21.117Z,1644.00
2018-04-27T05:46:21.143Z,1632.00
2018-04-27T05:47:21.145Z,1620.00
2018-04-27T05:48:21.248Z,1648.00
2018-04-27T05:49:21.183Z,1588.00
2018-04-27T05:50:21.177Z,1584.00
2018-04-27T05:51:21.191Z,1568.00
2018-04-27T05:52:21.208Z,1640.00
2018-04-27T05:55:18.461Z,1724.00
2018-04-27T05:56:18.476Z,1768.00
2018-04-27T05:57:18.489Z,1784.00
2018-04-27T05:58:18.501Z,1852.00
2018-04-27T05:59:18.516Z,1788.00
2018-04-27T06:00:18.529Z,1680.00
2018-04-27T06:01:18.548Z,1604.00
2018-04-27T06:02:18.567Z,1584.00
2018-04-27T06:03:18.584Z,1676.00
2018-04-27T06:04:18.591Z,1680.00
2018-04-27T06:05:18.607Z,1632.00
2018-04-27T06:06:18.616Z,1728.00
2018-04-27T06:07:18.632Z,1764.00
2018-04-27T06:08:18.648Z,1864.00
2018-04-27T06:09:18.663Z,1880.00
2018-04-27T06:10:18.806Z,1960.00
2018-04-27T06:11:18.691Z,1980.00
2018-04-27T06:12:18.702Z,1992.00
2018-04-27T06:13:18.717Z,1748.00
2018-04-27T06:14:18.731Z,1868.00
2018-04-27T06:15:18.757Z,1784.00
2018-04-27T06:16:18.761Z,1916.00
2018-04-27T06:17:18.775Z,1944.00
2018-04-27T06:18:18.789Z,1944.00
2018-04-27T06:19:18.802Z,1964.00
2018-04-27T06:20:18.818Z,1980.00
2018-04-27T06:21:19.710Z,1992.00
2018-04-27T06:22:18.847Z,2080.00
2018-04-27T06:23:18.866Z,2156.00
2018-04-27T06:24:18.879Z,1980.00
2018-04-27T06:25:18.891Z,2192.00
2018-04-27T06:26:18.913Z,2228.00
2018-04-27T06:27:18.952Z,2208.00
2018-04-27T06:28:18.935Z,2220.00
2018-04-27T06:29:18.951Z,2148.00
2018-04-27T06:30:18.965Z,2160.00
2018-04-27T06:31:18.979Z,2232.00
2018-04-27T06:32:18.997Z,2152.00
2018-04-27T06:33:19.014Z,2132.00
2018-04-27T06:34:19.094Z,2108.00
2018-04-27T06:35:19.732Z,2192.00
2018-04-27T06:36:19.069Z,2232.00
2018-04-27T06:37:19.931Z,2140.00
2018-04-27T06:38:19.602Z,2244.00
2018-04-27T06:39:19.678Z,1952.00
2018-04-27T06:40:19.673Z,2380.00
2018-04-27T06:42:19.149Z,2444.00
2018-04-27T06:43:19.160Z,2432.00
2018-04-27T06:44:19.179Z,2432.00
2018-04-27T06:45:19.203Z,2412.00
2018-04-27T06:46:19.204Z,2432.00
2018-04-27T06:48:19.240Z,2304.00
2018-04-27T06:49:19.637Z,2416.00
2018-04-27T06:50:19.269Z,2424.00
2018-04-27T06:51:19.291Z,2420.00
2018-04-27T06:52:19.311Z,2420.00
2018-04-27T06:53:19.310Z,2448.00
2018-04-27T06:55:19.343Z,2444.00
2018-04-27T06:56:19.365Z,2484.00
2018-04-27T06:57:19.572Z,2532.00
2018-04-27T06:58:19.470Z,2564.00
2018-04-27T06:59:19.511Z,2612.00
2018-04-27T07:00:19.420Z,2696.00
2018-04-27T07:01:19.985Z,2720.00
2018-04-27T07:02:19.461Z,2784.00
2018-04-27T07:03:19.463Z,2820.00
2018-04-27T07:04:19.529Z,2848.00
2018-04-27T07:05:19.528Z,2872.00
2018-04-27T07:06:19.512Z,2724.00
2018-04-27T07:07:19.527Z,2524.00
2018-04-27T07:08:19.585Z,2936.00
2018-04-27T07:09:19.576Z,2980.00
2018-04-27T07:10:19.580Z,2864.00
2018-04-27T07:11:19.597Z,2812.00
2018-04-27T07:12:19.603Z,2556.00
2018-04-27T07:13:19.645Z,2764.00
2018-04-27T07:14:19.633Z,2736.00
2018-04-27T07:15:19.664Z,2696.00
2018-04-27T07:16:19.667Z,2692.00
2018-04-27T07:17:19.688Z,2644.00
2018-04-27T07:18:19.830Z,2688.00
2018-04-27T07:19:19.723Z,2596.00
2018-04-27T07:21:19.987Z,2552.00
2018-04-27T07:22:19.753Z,2532.00
2018-04-27T07:23:19.856Z,2736.00
2018-04-27T07:25:19.821Z,2756.00
2018-04-27T07:26:19.917Z,2856.00
2018-04-27T07:27:20.008Z,2872.00
2018-04-27T07:28:19.847Z,2896.00
2018-04-27T07:29:20.186Z,2848.00
2018-04-27T07:30:19.873Z,2844.00
2018-04-27T07:31:20.338Z,2504.00
2018-04-27T07:32:19.905Z,2612.00
2018-04-27T07:33:19.921Z,2808.00
2018-04-27T07:34:20.122Z,2892.00
2018-04-27T07:35:20.058Z,2960.00
2018-04-27T07:36:20.007Z,3016.00
2018-04-27T07:37:19.983Z,3052.00
2018-04-27T07:38:20.000Z,3044.00
2018-04-27T07:39:20.258Z,3020.00
2018-04-27T07:40:20.032Z,3144.00
2018-04-27T07:41:20.055Z,3188.00
2018-04-27T07:42:20.070Z,3144.00
2018-04-27T07:43:20.076Z,3192.00
2018-04-27T07:44:20.090Z,3132.00
2018-04-27T07:45:20.181Z,3064.00
2018-04-27T07:46:20.130Z,3084.00
2018-04-27T07:47:20.135Z,3128.00
2018-04-27T07:48:20.168Z,3100.00
2018-04-27T07:49:20.167Z,3132.00
2018-04-27T07:50:20.192Z,3268.00
2018-04-27T07:51:20.706Z,3272.00
2018-04-27T07:52:20.434Z,3188.00
2018-04-27T07:53:20.564Z,3184.00
2018-04-27T07:54:20.762Z,3176.00
2018-04-27T07:55:20.334Z,3200.00
2018-04-27T07:56:20.323Z,3276.00
2018-04-27T07:57:20.419Z,3292.00
2018-04-27T07:58:20.403Z,3176.00
2018-04-27T07:59:20.329Z,3132.00
2018-04-27T08:00:20.351Z,3048.00
2018-04-27T08:01:20.360Z,3084.00
2018-04-27T08:02:20.444Z,3124.00
2018-04-27T08:03:20.512Z,3036.00
2018-04-27T08:04:20.421Z,2880.00
2018-04-27T08:05:20.418Z,3064.00
2018-04-27T08:06:20.439Z,3068.00
2018-04-27T08:07:20.467Z,3060.00
2018-04-27T08:08:20.465Z,3092.00
2018-04-27T08:09:20.733Z,3088.00
2018-04-27T08:10:20.496Z,2936.00
2018-04-27T08:11:20.599Z,2920.00
2018-04-27T08:12:20.527Z,3080.00
2018-04-27T08:13:20.547Z,3144.00
2018-04-27T08:14:20.559Z,3148.00
2018-04-27T08:15:20.577Z,3228.00
2018-04-27T08:16:20.603Z,3288.00
2018-04-27T08:17:20.618Z,3368.00
2018-04-27T08:18:20.622Z,3404.00
2018-04-27T08:19:20.639Z,3508.00
2018-04-27T08:20:20.657Z,3460.00
2018-04-27T08:21:20.671Z,3476.00
2018-04-27T08:22:20.758Z,3688.00
2018-04-27T08:23:20.706Z,3816.00
2018-04-27T08:24:20.755Z,3908.00
2018-04-27T08:25:20.734Z,3896.00
2018-04-27T08:26:20.806Z,3880.00
2018-04-27T08:27:20.918Z,3924.00
2018-04-27T08:28:21.742Z,3904.00
2018-04-27T08:29:22.268Z,4048.00
2018-04-27T08:30:20.859Z,4096.00
2018-04-27T08:31:20.827Z,4104.00
2018-04-27T08:32:20.845Z,4052.00
2018-04-27T08:33:20.861Z,4164.00
2018-04-27T08:34:20.883Z,4112.00
2018-04-27T08:35:20.891Z,4120.00
2018-04-27T08:36:20.911Z,4104.00
2018-04-27T08:37:20.926Z,4084.00
2018-04-27T08:38:20.940Z,4104.00
2018-04-27T08:40:20.975Z,3992.00
2018-04-27T08:41:20.987Z,3948.00
2018-04-27T08:42:21.015Z,3980.00
2018-04-27T08:43:21.039Z,3948.00
2018-04-27T08:44:21.035Z,3912.00
2018-04-27T08:45:21.053Z,3944.00
2018-04-27T08:46:21.068Z,4008.00
2018-04-27T08:47:21.100Z,4004.00
2018-04-27T08:48:21.115Z,4032.00
2018-04-27T08:49:21.213Z,4060.00
2018-04-27T08:50:21.169Z,4036.00
2018-04-27T08:51:21.154Z,4016.00
2018-04-27T08:52:21.296Z,4000.00
2018-04-27T08:53:21.185Z,4036.00
2018-04-27T08:54:21.209Z,3972.00
2018-04-27T08:55:21.226Z,3964.00
2018-04-27T08:56:21.307Z,3976.00
2018-04-27T08:57:21.258Z,3992.00
2018-04-27T08:58:21.275Z,4016.00
2018-04-27T08:59:21.281Z,4060.00
2018-04-27T09:00:21.299Z,4064.00
2018-04-27T09:01:21.318Z,4104.00
2018-04-27T09:02:21.331Z,4120.00
2018-04-27T09:03:21.563Z,4164.00
2018-04-27T09:04:22.042Z,4152.00
2018-04-27T09:05:21.705Z,4212.00
2018-04-27T09:06:21.440Z,4204.00
2018-04-27T09:07:21.423Z,4240.00
2018-04-27T09:08:21.434Z,4288.00
2018-04-27T09:09:21.463Z,4296.00
2018-04-27T09:10:21.498Z,4256.00
2018-04-27T09:11:21.485Z,4368.00
2018-04-27T09:12:21.500Z,4312.00
2018-04-27T09:13:21.535Z,4312.00
2018-04-27T09:14:21.581Z,4408.00
2018-04-27T09:15:21.550Z,4312.00
2018-04-27T09:16:21.623Z,4312.00
2018-04-27T09:17:21.583Z,4288.00
2018-04-27T09:18:21.600Z,4296.00
2018-04-27T09:19:21.669Z,4252.00
2018-04-27T09:20:21.684Z,4288.00
2018-04-27T09:21:21.653Z,4272.00
2018-04-27T09:22:21.695Z,4328.00
2018-04-27T09:23:21.682Z,4372.00
2018-04-27T09:24:21.700Z,4420.00
2018-04-27T09:25:21.721Z,4372.00
2018-04-27T09:26:21.760Z,4328.00
2018-04-27T09:27:21.756Z,4292.00
2018-04-27T09:29:21.790Z,4192.00
2018-04-27T09:30:21.864Z,4308.00
2018-04-27T09:31:21.822Z,4852.00
2018-04-27T09:32:21.924Z,4856.00
2018-04-27T09:33:21.856Z,5360.00
2018-04-27T09:34:21.870Z,4904.00
2018-04-27T09:35:21.888Z,4880.00
2018-04-27T09:36:21.915Z,4640.00
2018-04-27T09:37:21.918Z,4880.00
2018-04-27T09:38:21.947Z,4816.00
2018-04-27T09:39:22.080Z,4648.00
2018-04-27T09:40:21.968Z,4860.00
2018-04-27T09:41:22.021Z,5004.00
2018-04-27T09:42:22.003Z,5340.00
2018-04-27T09:43:22.049Z,5320.00
2018-04-27T09:44:22.038Z,5084.00
2018-04-27T09:45:22.078Z,5304.00
2018-04-27T09:46:22.072Z,5092.00
2018-04-27T09:47:22.101Z,5008.00
2018-04-27T09:48:22.104Z,4956.00
2018-04-27T09:49:22.192Z,4920.00
2018-04-27T09:50:22.871Z,5028.00
2018-04-27T09:51:22.924Z,5140.00
2018-04-27T09:52:22.174Z,5484.00
2018-04-27T09:53:22.185Z,5624.00
2018-04-27T09:54:22.213Z,5116.00
2018-04-27T09:55:22.223Z,5260.00
2018-04-27T09:56:22.238Z,5176.00
2018-04-27T09:57:22.301Z,5092.00
2018-04-27T09:58:22.273Z,5104.00
2018-04-27T09:59:22.321Z,5024.00
2018-04-27T10:00:22.304Z,5220.00
2018-04-27T10:01:22.318Z,5136.00
2018-04-27T10:02:22.333Z,5136.00
2018-04-27T10:03:22.352Z,5212.00
2018-04-27T10:04:22.369Z,5260.00
2018-04-27T10:05:22.391Z,5172.00
2018-04-27T10:06:22.403Z,5152.00
2018-04-27T10:07:22.435Z,5216.00
2018-04-27T10:08:22.446Z,5028.00
2018-04-27T10:09:22.468Z,5112.00
2018-04-27T10:10:22.473Z,5104.00
2018-04-27T10:11:22.490Z,5092.00
2018-04-27T10:12:22.510Z,5188.00
2018-04-27T10:13:22.526Z,5340.00
2018-04-27T10:14:22.561Z,5340.00
2018-04-27T10:15:22.613Z,5360.00
2018-04-27T10:16:22.595Z,5484.00
2018-04-27T10:17:22.593Z,5180.00
2018-04-27T10:18:22.609Z,5088.00
2018-04-27T10:19:22.626Z,5104.00
2018-04-27T10:20:22.659Z,5128.00
2018-04-27T10:21:22.667Z,5184.00
2018-04-27T10:22:22.678Z,5368.00
2018-04-27T10:23:22.697Z,5284.00
2018-04-27T10:24:22.715Z,5200.00
2018-04-27T10:25:22.736Z,5280.00
2018-04-27T10:26:22.752Z,5276.00
2018-04-27T10:27:22.772Z,5424.00
2018-04-27T10:28:22.796Z,5348.00
2018-04-27T10:29:22.810Z,5228.00
2018-04-27T10:30:22.962Z,5104.00
2018-04-27T10:31:22.840Z,5164.00
2018-04-27T10:32:22.879Z,4988.00
2018-04-27T10:33:22.878Z,5208.00
2018-04-27T10:34:22.887Z,5080.00
2018-04-27T10:35:22.920Z,5100.00
2018-04-27T10:36:22.924Z,5148.00
2018-04-27T10:37:22.941Z,5236.00
2018-04-27T10:38:22.961Z,5152.00
2018-04-27T10:39:22.986Z,5336.00
2018-04-27T10:40:22.988Z,5076.00
2018-04-27T10:41:23.022Z,5288.00
2018-04-27T10:42:23.101Z,5140.00
2018-04-27T10:43:23.050Z,5120.00
2018-04-27T10:44:23.066Z,4936.00
2018-04-27T10:45:23.085Z,4784.00
2018-04-27T10:46:23.096Z,4676.00
2018-04-27T10:47:23.111Z,4868.00
2018-04-27T10:48:23.133Z,4948.00
2018-04-27T10:49:23.147Z,4564.00
2018-04-27T10:50:23.441Z,4912.00
2018-04-27T10:51:23.192Z,4644.00
2018-04-27T10:52:23.207Z,4804.00
2018-04-27T10:53:23.306Z,4520.00
2018-04-27T10:54:23.233Z,4740.00
2018-04-27T10:55:23.255Z,4904.00
2018-04-27T10:56:23.268Z,4588.00
2018-04-27T10:57:23.291Z,4780.00
2018-04-27T10:58:23.306Z,4512.00
2018-04-27T10:59:23.327Z,4440.00
2018-04-27T11:00:23.344Z,5148.00
2018-04-27T11:01:23.372Z,5152.00
2018-04-27T11:02:23.379Z,4692.00
2018-04-27T11:03:23.429Z,4568.00
2018-04-27T11:04:23.411Z,4616.00
2018-04-27T11:05:23.533Z,4740.00
2018-04-27T11:06:23.729Z,5280.00
2018-04-27T11:07:23.461Z,5068.00
2018-04-27T11:08:23.658Z,5136.00
2018-04-27T11:09:24.017Z,5124.00
2018-04-27T11:10:23.517Z,5120.00
2018-04-27T11:11:23.536Z,5200.00
2018-04-27T11:12:23.559Z,5408.00
2018-04-27T11:13:23.678Z,5384.00
2018-04-27T11:14:23.590Z,5480.00
2018-04-27T11:15:23.601Z,5448.00
2018-04-27T11:16:23.621Z,5372.00
2018-04-27T11:17:23.640Z,5088.00
2018-04-27T11:18:23.653Z,4776.00
2018-04-27T11:19:23.671Z,4776.00
2018-04-27T11:20:23.685Z,4748.00
2018-04-27T11:21:23.711Z,4884.00
2018-04-27T11:22:23.720Z,5056.00
2018-04-27T11:23:24.084Z,5068.00
2018-04-27T11:24:24.087Z,5164.00
2018-04-27T11:25:24.060Z,5080.00
2018-04-27T11:26:24.676Z,4884.00
2018-04-27T11:27:23.812Z,4720.00
2018-04-27T11:28:23.859Z,4600.00
2018-04-27T11:29:23.847Z,4600.00
2018-04-27T11:30:23.889Z,4860.00
2018-04-27T11:31:23.881Z,5088.00
2018-04-27T11:32:23.897Z,5140.00
2018-04-27T11:33:23.920Z,5280.00
2018-04-27T11:34:23.942Z,5440.00
2018-04-27T11:35:23.949Z,5492.00
2018-04-27T11:36:23.985Z,5556.00
2018-04-27T11:37:23.989Z,5316.00
2018-04-27T11:38:24.035Z,5340.00
2018-04-27T11:39:24.031Z,5588.00
2018-04-27T11:40:24.043Z,5972.00
2018-04-27T11:41:24.057Z,5188.00
2018-04-27T11:42:24.100Z,5076.00
2018-04-27T11:43:24.099Z,5092.00
2018-04-27T11:44:24.112Z,6128.00
2018-04-27T11:45:24.132Z,5624.00
2018-04-27T11:46:24.149Z,6464.00
2018-04-27T11:47:24.163Z,5512.00
2018-04-27T11:48:24.291Z,5684.00
2018-04-27T11:49:24.203Z,4752.00
2018-04-27T11:50:24.223Z,5336.00
2018-04-27T11:51:24.236Z,6516.00
2018-04-27T11:52:24.271Z,6512.00
2018-04-27T11:53:24.277Z,6436.00
2018-04-27T11:54:24.310Z,5936.00
2018-04-27T11:55:24.316Z,6012.00
2018-04-27T11:56:24.333Z,6020.00
2018-04-27T11:57:24.343Z,5776.00
2018-04-27T11:58:24.362Z,5120.00
2018-04-27T11:59:24.381Z,5352.00
2018-04-27T12:00:24.398Z,5388.00
2018-04-27T12:01:24.413Z,5872.00
2018-04-27T12:02:24.487Z,5368.00
2018-04-27T12:03:24.453Z,5888.00
2018-04-27T12:04:24.468Z,5528.00
2018-04-27T12:05:24.482Z,6356.00
2018-04-27T12:06:24.502Z,6700.00
2018-04-27T12:07:24.523Z,6960.00
2018-04-27T12:08:24.543Z,6064.00
2018-04-27T12:09:24.580Z,5968.00
2018-04-27T12:10:24.573Z,6200.00
2018-04-27T12:11:24.594Z,5756.00
2018-04-27T12:12:24.613Z,6040.00
2018-04-27T12:13:24.686Z,6384.00
2018-04-27T12:14:24.649Z,5940.00
2018-04-27T12:15:24.668Z,5852.00
2018-04-27T12:16:24.682Z,5312.00
2018-04-27T12:17:24.714Z,6568.00
2018-04-27T12:18:24.780Z,7096.00
2018-04-27T12:19:24.736Z,7272.00
2018-04-27T12:20:24.755Z,7132.00
2018-04-27T12:22:24.823Z,6096.00
2018-04-27T12:23:26.022Z,4984.00
2018-04-27T12:24:24.891Z,5596.00
2018-04-27T12:25:24.877Z,5480.00
2018-04-27T12:26:24.865Z,5800.00
2018-04-27T12:27:24.883Z,6680.00
2018-04-27T12:28:24.900Z,11232.00
2018-04-27T12:29:24.926Z,8844.00
2018-04-27T12:30:24.951Z,9368.00
2018-04-27T12:31:25.151Z,11672.00
2018-04-27T12:32:24.997Z,9368.00
2018-04-27T12:33:24.999Z,6836.00
2018-04-27T12:34:25.027Z,7116.00
2018-04-27T12:35:25.035Z,7028.00
2018-04-27T12:36:25.072Z,7860.00
2018-04-27T12:37:25.075Z,6932.00
2018-04-27T12:38:25.083Z,7240.00
2018-04-27T12:39:25.103Z,7412.00
2018-04-27T12:40:25.121Z,6372.00
2018-04-27T12:41:25.146Z,8976.00
2018-04-27T12:42:25.167Z,7336.00
2018-04-27T12:43:25.185Z,6484.00
2018-04-27T12:44:25.199Z,7532.00